Time,TemperatureF,DewpointF,PressureIn,WindDirection,WindDirectionDegrees,WindSpeedMPH,WindSpeedGustMPH,Humidity,HourlyPrecipIn,Conditions,Clouds,dailyrainin,SoftwareType,DateUTC
2013-03-20 00:02:00,52.0,49.0,29.60,South,169,0.0,0.0,89,0.08,,,0.42,,2013-03-20 07:02:00,
2013-03-20 00:11:00,52.0,49.0,29.60,South,169,0.0,0.0,89,0.08,,,0.42,,2013-03-20 07:11:00,
2013-03-20 00:21:00,52.0,49.0,29.59,SSE,161,0.0,0.0,89,0.10,,,0.44,,2013-03-20 07:21:00,
2013-03-20 00:31:00,52.0,49.0,29.59,South,185,0.0,0.0,89,0.09,,,0.45,,2013-03-20 07:31:00,
2013-03-20 00:41:00,52.0,49.0,29.59,South,185,0.0,0.0,89,0.09,,,0.45,,2013-03-20 07:41:00,
2013-03-20 00:52:00,53.0,49.0,29.59,SW,220,0.0,0.0,87,0.06,,,0.46,,2013-03-20 07:52:00,
2013-03-20 01:01:00,53.0,49.0,29.59,SSW,205,0.0,0.0,87,0.06,,,0.47,,2013-03-20 08:01:00,
2013-03-20 01:11:00,53.0,49.0,29.59,SSW,205,0.0,0.0,87,0.06,,,0.47,,2013-03-20 08:11:00,
2013-03-20 01:21:00,52.0,49.0,29.59,SW,221,0.0,0.0,88,0.04,,,0.48,,2013-03-20 08:21:00,
2013-03-20 01:32:00,52.0,49.0,29.59,SW,231,0.0,0.0,89,0.04,,,0.50,,2013-03-20 08:32:00,
2013-03-20 01:42:00,52.0,49.0,29.59,SW,231,0.0,0.0,89,0.04,,,0.50,,2013-03-20 08:42:00,
2013-03-20 01:52:00,51.0,48.0,29.59,SW,222,0.0,0.0,90,0.06,,,0.52,,2013-03-20 08:52:00,
2013-03-20 02:01:00,51.0,48.0,29.58,SSW,193,0.0,0.0,90,0.07,,,0.54,,2013-03-20 09:01:00,
2013-03-20 02:11:00,51.0,48.0,29.58,SSW,193,0.0,0.0,90,0.07,,,0.54,,2013-03-20 09:11:00,
2013-03-20 02:22:00,51.0,48.0,29.57,South,182,0.0,0.0,91,0.06,,,0.54,,2013-03-20 09:22:00,
2013-03-20 02:32:00,52.0,49.0,29.57,SSE,167,0.0,0.0,90,0.05,,,0.55,,2013-03-20 09:32:00,
2013-03-20 02:42:00,52.0,49.0,29.57,SSE,167,0.0,0.0,90,0.05,,,0.55,,2013-03-20 09:42:00,
2013-03-20 02:52:00,52.0,49.0,29.57,SSW,195,0.0,0.0,90,0.03,,,0.55,,2013-03-20 09:52:00,
2013-03-20 03:02:00,52.0,49.0,29.57,South,169,0.0,0.0,89,0.01,,,0.55,,2013-03-20 10:02:00,
2013-03-20 03:12:00,52.0,49.0,29.57,South,169,0.0,0.0,89,0.01,,,0.55,,2013-03-20 10:12:00,
2013-03-20 03:22:00,53.0,49.0,29.54,SSE,159,0.0,0.0,87,0.01,,,0.55,,2013-03-20 10:22:00,
2013-03-20 03:32:00,53.0,48.0,29.54,SSW,202,0.0,0.0,83,0.01,,,0.56,,2013-03-20 10:32:00,
2013-03-20 03:42:00,53.0,48.0,29.54,SSW,202,0.0,0.0,83,0.01,,,0.56,,2013-03-20 10:42:00,
2013-03-20 03:53:00,53.0,48.0,29.54,SW,218,0.0,0.0,83,0.01,,,0.56,,2013-03-20 10:53:00,
2013-03-20 04:02:00,53.0,48.0,29.54,South,186,0.0,0.0,83,0.01,,,0.56,,2013-03-20 11:02:00,
2013-03-20 04:11:00,53.0,48.0,29.54,South,186,0.0,0.0,83,0.01,,,0.56,,2013-03-20 11:11:00,
2013-03-20 04:21:00,53.0,48.0,29.52,SSW,192,0.0,0.0,83,0.01,,,0.56,,2013-03-20 11:21:00,
2013-03-20 04:32:00,54.0,49.0,29.52,SSE,168,0.0,0.0,82,0.02,,,0.57,,2013-03-20 11:32:00,
2013-03-20 04:42:00,54.0,49.0,29.52,SSE,168,0.0,0.0,82,0.02,,,0.57,,2013-03-20 11:42:00,
2013-03-20 04:52:00,53.0,48.0,29.53,SSW,193,0.0,0.0,84,0.03,,,0.59,,2013-03-20 11:52:00,
2013-03-20 05:02:00,52.0,48.0,29.52,South,185,0.0,0.0,87,0.05,,,0.61,,2013-03-20 12:02:00,
2013-03-20 05:11:00,52.0,48.0,29.52,South,185,0.0,0.0,87,0.05,,,0.61,,2013-03-20 12:11:00,
2013-03-20 05:22:00,52.0,48.0,29.52,SSE,168,0.0,0.0,87,0.06,,,0.62,,2013-03-20 12:22:00,
2013-03-20 05:32:00,52.0,49.0,29.52,SSW,196,0.0,0.0,88,0.05,,,0.63,,2013-03-20 12:32:00,
2013-03-20 05:42:00,52.0,49.0,29.52,SSW,196,0.0,0.0,88,0.05,,,0.63,,2013-03-20 12:42:00,
2013-03-20 05:52:00,52.0,49.0,29.52,South,170,0.0,0.0,88,0.05,,,0.64,,2013-03-20 12:52:00,
2013-03-20 06:02:00,53.0,49.0,29.52,South,179,0.0,0.0,87,0.03,,,0.64,,2013-03-20 13:02:00,
2013-03-20 06:12:00,53.0,49.0,29.52,South,179,0.0,0.0,87,0.03,,,0.64,,2013-03-20 13:12:00,
2013-03-20 06:21:00,53.0,49.0,29.52,SSW,194,0.0,0.0,87,0.03,,,0.65,,2013-03-20 13:21:00,
2013-03-20 06:32:00,52.0,48.0,29.52,South,191,0.0,0.0,87,0.02,,,0.65,,2013-03-20 13:32:00,
2013-03-20 06:42:00,52.0,48.0,29.52,South,191,0.0,0.0,87,0.02,,,0.65,,2013-03-20 13:42:00,
2013-03-20 07:02:00,53.0,49.0,29.52,SSW,213,0.0,0.0,85,0.01,,,0.65,,2013-03-20 14:02:00,
2013-03-20 07:11:00,53.0,49.0,29.52,SSW,213,0.0,0.0,85,0.01,,,0.65,,2013-03-20 14:11:00,
2013-03-20 07:21:00,53.0,49.0,29.51,SE,141,0.0,0.0,85,0.00,,,0.65,,2013-03-20 14:21:00,
2013-03-20 07:32:00,53.0,48.0,29.51,SW,214,0.0,0.0,84,0.01,,,0.66,,2013-03-20 14:32:00,
2013-03-20 07:42:00,53.0,48.0,29.51,SW,214,0.0,0.0,84,0.01,,,0.66,,2013-03-20 14:42:00,
2013-03-20 07:51:00,53.0,48.0,29.51,SSW,212,0.0,0.0,84,0.03,,,0.68,,2013-03-20 14:51:00,
2013-03-20 08:02:00,53.0,49.0,29.51,SSW,205,0.0,0.0,85,0.06,,,0.71,,2013-03-20 15:02:00,
2013-03-20 08:12:00,52.0,48.0,29.52,SW,214,0.0,0.0,85,0.08,,,0.73,,2013-03-20 15:12:00,
2013-03-20 08:22:00,52.0,48.0,29.52,SW,214,0.0,0.0,85,0.08,,,0.73,,2013-03-20 15:22:00,
2013-03-20 08:33:00,52.0,48.0,29.52,SW,226,0.0,0.0,87,0.11,,,0.77,,2013-03-20 15:33:00,
2013-03-20 08:43:00,52.0,48.0,29.52,SW,226,0.0,0.0,87,0.11,,,0.77,,2013-03-20 15:43:00,
2013-03-20 08:52:00,52.0,49.0,29.54,WSW,241,0.0,0.0,88,0.12,,,0.80,,2013-03-20 15:52:00,
2013-03-20 09:02:00,51.0,48.0,29.56,NW,312,0.0,0.0,88,0.13,,,0.84,,2013-03-20 16:02:00,
2013-03-20 09:12:00,51.0,48.0,29.56,NW,312,0.0,0.0,88,0.13,,,0.84,,2013-03-20 16:12:00,
2013-03-20 09:22:00,49.0,45.0,29.59,WNW,302,0.0,0.0,87,0.12,,,0.85,,2013-03-20 16:22:00,
2013-03-20 09:32:00,48.0,44.0,29.60,WNW,284,0.0,0.0,85,0.08,,,0.85,,2013-03-20 16:32:00,
2013-03-20 09:42:00,48.0,44.0,29.60,WNW,284,0.0,0.0,85,0.08,,,0.85,,2013-03-20 16:42:00,
2013-03-20 09:52:00,48.0,44.0,29.62,WNW,285,0.0,0.0,86,0.05,,,0.85,,2013-03-20 16:52:00,
2013-03-20 10:02:00,48.0,43.0,29.64,West,272,0.0,0.0,84,0.01,,,0.85,,2013-03-20 17:02:00,
2013-03-20 10:11:00,48.0,43.0,29.64,West,272,0.0,0.0,84,0.01,,,0.85,,2013-03-20 17:11:00,
2013-03-20 10:21:00,48.0,43.0,29.65,West,264,0.0,0.0,84,0.00,,,0.85,,2013-03-20 17:21:00,
2013-03-20 10:32:00,48.0,43.0,29.66,West,273,0.0,0.0,82,0.00,,,0.85,,2013-03-20 17:32:00,
2013-03-20 10:42:00,48.0,43.0,29.66,West,273,0.0,0.0,82,0.00,,,0.85,,2013-03-20 17:42:00,
2013-03-20 10:52:00,48.0,42.0,29.68,South,184,0.0,0.0,80,0.00,,,0.85,,2013-03-20 17:52:00,
2013-03-20 11:01:00,48.0,42.0,29.69,WSW,253,0.0,0.0,80,0.00,,,0.85,,2013-03-20 18:01:00,
2013-03-20 11:12:00,48.0,42.0,29.69,WSW,253,0.0,0.0,80,0.00,,,0.85,,2013-03-20 18:12:00,
2013-03-20 11:21:00,48.0,41.0,29.71,West,264,0.0,0.0,78,0.00,,,0.85,,2013-03-20 18:21:00,
2013-03-20 11:32:00,48.0,40.0,29.71,NNW,335,0.0,0.0,75,0.00,,,0.85,,2013-03-20 18:32:00,
2013-03-20 11:42:00,48.0,40.0,29.71,NNW,335,0.0,0.0,75,0.00,,,0.85,,2013-03-20 18:42:00,
2013-03-20 11:52:00,48.0,40.0,29.72,West,281,0.0,0.0,74,0.00,,,0.85,,2013-03-20 18:52:00,
2013-03-20 12:01:00,49.0,42.0,29.75,NNW,345,0.0,0.0,76,0.01,,,0.86,,2013-03-20 19:01:00,
2013-03-20 12:12:00,49.0,42.0,29.75,NNW,345,0.0,0.0,76,0.01,,,0.86,,2013-03-20 19:12:00,
2013-03-20 12:22:00,48.0,41.0,29.76,West,271,0.0,0.0,77,0.01,,,0.86,,2013-03-20 19:22:00,
2013-03-20 12:31:00,48.0,41.0,29.76,West,278,0.0,0.0,78,0.01,,,0.86,,2013-03-20 19:31:00,
2013-03-20 12:42:00,48.0,41.0,29.76,West,278,0.0,0.0,78,0.01,,,0.86,,2013-03-20 19:42:00,
2013-03-20 12:52:00,49.0,42.0,29.77,NW,309,0.0,0.0,77,0.01,,,0.86,,2013-03-20 19:52:00,
2013-03-20 13:01:00,50.0,40.0,29.78,SW,236,0.0,0.0,68,0.00,,,0.86,,2013-03-20 20:01:00,
2013-03-20 13:12:00,50.0,40.0,29.78,SW,236,0.0,0.0,68,0.00,,,0.86,,2013-03-20 20:12:00,
2013-03-20 13:21:00,50.0,40.0,29.78,SW,231,0.0,0.0,68,0.00,,,0.86,,2013-03-20 20:21:00,
2013-03-20 13:32:00,49.0,39.0,29.79,SW,232,0.0,0.0,68,0.00,,,0.86,,2013-03-20 20:32:00,
2013-03-20 13:42:00,49.0,39.0,29.79,SW,232,0.0,0.0,68,0.00,,,0.86,,2013-03-20 20:42:00,
2013-03-20 13:52:00,50.0,40.0,29.79,WSW,243,0.0,0.0,68,0.00,,,0.86,,2013-03-20 20:52:00,
2013-03-20 14:01:00,50.0,39.0,29.79,NW,325,0.0,0.0,67,0.00,,,0.86,,2013-03-20 21:01:00,
2013-03-20 14:11:00,50.0,39.0,29.79,NW,325,0.0,0.0,67,0.00,,,0.86,,2013-03-20 21:11:00,
2013-03-20 14:21:00,49.0,39.0,29.81,West,278,0.0,0.0,67,0.00,,,0.86,,2013-03-20 21:21:00,
2013-03-20 14:32:00,47.0,39.0,29.82,NW,307,0.0,0.0,73,0.00,,,0.86,,2013-03-20 21:32:00,
2013-03-20 14:42:00,47.0,39.0,29.82,NW,307,0.0,0.0,73,0.00,,,0.86,,2013-03-20 21:42:00,
2013-03-20 14:52:00,48.0,40.0,29.82,West,277,0.0,0.0,73,0.00,,,0.86,,2013-03-20 21:52:00,
2013-03-20 15:02:00,48.0,38.0,29.83,WNW,295,0.0,0.0,69,0.00,,,0.86,,2013-03-20 22:02:00,
2013-03-20 15:12:00,48.0,38.0,29.83,WNW,295,0.0,0.0,69,0.00,,,0.86,,2013-03-20 22:12:00,
2013-03-20 15:22:00,46.0,38.0,29.84,NNW,329,0.0,0.0,73,0.00,,,0.86,,2013-03-20 22:22:00,
2013-03-20 15:32:00,46.0,39.0,29.85,NW,311,0.0,0.0,75,0.00,,,0.85,,2013-03-20 22:32:00,
2013-03-20 15:42:00,46.0,39.0,29.85,NW,311,0.0,0.0,75,0.00,,,0.85,,2013-03-20 22:42:00,
2013-03-20 15:52:00,47.0,38.0,29.85,NNW,329,0.0,0.0,72,0.00,,,0.83,,2013-03-20 22:52:00,
2013-03-20 16:02:00,46.0,36.0,29.87,WSW,251,0.0,0.0,69,0.00,,,0.81,,2013-03-20 23:02:00,
2013-03-20 16:12:00,46.0,36.0,29.87,WSW,251,0.0,0.0,69,0.00,,,0.81,,2013-03-20 23:12:00,
2013-03-20 16:22:00,46.0,36.0,29.88,WSW,250,0.0,0.0,69,0.00,,,0.80,,2013-03-20 23:22:00,
2013-03-20 16:31:00,46.0,37.0,29.88,WNW,287,0.0,0.0,71,0.00,,,0.78,,2013-03-20 23:31:00,
2013-03-20 16:42:00,46.0,37.0,29.88,WNW,287,0.0,0.0,71,0.00,,,0.78,,2013-03-20 23:42:00,
2013-03-20 16:52:00,45.0,38.0,29.89,West,262,0.0,0.0,75,0.00,,,0.78,,2013-03-20 23:52:00,
2013-03-20 17:02:00,46.0,38.0,29.90,SW,236,0.0,0.0,74,0.00,,,0.78,,2013-03-21 00:02:00,
2013-03-20 17:12:00,46.0,38.0,29.90,SW,236,0.0,0.0,74,0.00,,,0.78,,2013-03-21 00:12:00,
2013-03-20 17:22:00,47.0,38.0,29.91,NW,326,0.0,0.0,71,0.00,,,0.78,,2013-03-21 00:22:00,
2013-03-20 17:32:00,47.0,37.0,29.91,West,269,0.0,0.0,69,0.00,,,0.78,,2013-03-21 00:32:00,
2013-03-20 17:41:00,47.0,37.0,29.91,West,269,0.0,0.0,69,0.00,,,0.78,,2013-03-21 00:41:00,
2013-03-20 17:52:00,45.0,38.0,29.92,West,270,0.0,0.0,77,0.02,,,0.79,,2013-03-21 00:52:00,
2013-03-20 18:02:00,45.0,39.0,29.92,West,262,0.0,0.0,78,0.02,,,0.79,,2013-03-21 01:02:00,
2013-03-20 18:11:00,45.0,39.0,29.92,West,262,0.0,0.0,78,0.02,,,0.79,,2013-03-21 01:11:00,
2013-03-20 18:21:00,45.0,38.0,29.93,West,271,0.0,0.0,77,0.02,,,0.78,,2013-03-21 01:21:00,
2013-03-20 18:32:00,45.0,38.0,29.93,West,265,0.0,0.0,77,0.02,,,0.77,,2013-03-21 01:32:00,
2013-03-20 18:42:00,45.0,38.0,29.93,West,265,0.0,0.0,77,0.02,,,0.77,,2013-03-21 01:42:00,
2013-03-20 18:52:00,45.0,37.0,29.96,WSW,241,0.0,0.0,72,0.00,,,0.76,,2013-03-21 01:52:00,
2013-03-20 19:01:00,45.0,35.0,29.96,WNW,295,0.0,0.0,68,0.00,,,0.75,,2013-03-21 02:01:00,
2013-03-20 19:12:00,45.0,35.0,29.96,WNW,295,0.0,0.0,68,0.00,,,0.75,,2013-03-21 02:12:00,
2013-03-20 19:22:00,45.0,35.0,29.97,NW,306,0.0,0.0,68,0.00,,,0.74,,2013-03-21 02:22:00,
2013-03-20 19:32:00,44.0,34.0,29.97,NW,319,0.0,0.0,69,0.00,,,0.74,,2013-03-21 02:32:00,
2013-03-20 19:42:00,44.0,34.0,29.97,NW,319,0.0,0.0,69,0.00,,,0.74,,2013-03-21 02:42:00,
2013-03-20 19:51:00,44.0,34.0,29.97,NW,319,0.0,0.0,69,0.00,,,0.74,,2013-03-21 02:51:00,
2013-03-20 20:02:00,42.0,35.0,29.99,WSW,250,0.0,0.0,76,0.00,,,0.72,,2013-03-21 03:02:00,
2013-03-20 20:11:00,42.0,35.0,29.99,WSW,250,0.0,0.0,76,0.00,,,0.72,,2013-03-21 03:11:00,
2013-03-20 20:22:00,42.0,36.0,30.01,SW,229,0.0,0.0,78,0.00,,,0.72,,2013-03-21 03:22:00,
2013-03-20 20:32:00,42.0,36.0,30.01,SW,215,0.0,0.0,79,0.00,,,0.71,,2013-03-21 03:32:00,
2013-03-20 20:43:00,42.0,36.0,30.01,SW,215,0.0,0.0,79,0.00,,,0.71,,2013-03-21 03:43:00,
2013-03-20 20:53:00,41.0,35.0,30.02,SW,215,0.0,0.0,79,0.00,,,0.70,,2013-03-21 03:53:00,
2013-03-20 21:02:00,41.0,35.0,30.02,SW,224,0.0,0.0,80,0.00,,,0.69,,2013-03-21 04:02:00,
2013-03-20 21:12:00,41.0,35.0,30.02,SW,224,0.0,0.0,80,0.00,,,0.69,,2013-03-21 04:12:00,
2013-03-20 21:22:00,41.0,35.0,30.04,WSW,245,0.0,0.0,78,0.00,,,0.64,,2013-03-21 04:22:00,
2013-03-20 21:32:00,41.0,35.0,30.04,West,269,0.0,0.0,78,0.00,,,0.64,,2013-03-21 04:32:00,
2013-03-20 21:43:00,41.0,35.0,30.04,West,269,0.0,0.0,78,0.00,,,0.64,,2013-03-21 04:43:00,
2013-03-20 21:53:00,41.0,35.0,30.05,West,263,0.0,0.0,78,0.00,,,0.62,,2013-03-21 04:53:00,
2013-03-20 22:02:00,41.0,35.0,30.05,SW,220,0.0,0.0,79,0.00,,,0.59,,2013-03-21 05:02:00,
2013-03-20 22:12:00,41.0,35.0,30.05,SW,220,0.0,0.0,79,0.00,,,0.59,,2013-03-21 05:12:00,
2013-03-20 22:22:00,41.0,35.0,30.07,SW,214,0.0,0.0,79,0.00,,,0.55,,2013-03-21 05:22:00,
2013-03-20 22:32:00,40.0,34.0,30.07,SW,218,0.0,0.0,80,0.00,,,0.54,,2013-03-21 05:32:00,
2013-03-20 22:43:00,40.0,34.0,30.07,SW,218,0.0,0.0,80,0.00,,,0.54,,2013-03-21 05:43:00,
2013-03-20 22:52:00,40.0,34.0,30.08,SW,233,0.0,0.0,79,0.00,,,0.54,,2013-03-21 05:52:00,
2013-03-20 23:02:00,40.0,34.0,30.08,SW,233,0.0,0.0,78,0.00,,,0.54,,2013-03-21 06:02:00,
2013-03-20 23:11:00,40.0,34.0,30.08,SW,233,0.0,0.0,78,0.00,,,0.54,,2013-03-21 06:11:00,
2013-03-20 23:22:00,40.0,34.0,30.10,WSW,242,0.0,0.0,78,0.00,,,0.54,,2013-03-21 06:22:00,
2013-03-20 23:32:00,40.0,34.0,30.10,SW,224,0.0,0.0,78,0.00,,,0.50,,2013-03-21 06:32:00,
2013-03-20 23:42:00,40.0,34.0,30.10,SW,224,0.0,0.0,78,0.00,,,0.50,,2013-03-21 06:42:00,
2013-03-20 23:52:00,40.0,34.0,30.11,SW,226,0.0,0.0,78,0.00,,,0.48,,2013-03-21 06:52:00,